Time;durP1;ratioP1;P1;durP2;ratioP2;P2;SDS_P1;SDS_P2;PMS_P1;PMS_P2;Temp;Humidity;BMP_temperature;BMP_pressure;BME280_temperature;BME280_humidity;BME280_pressure;Samples;Min_cycle;Max_cycle;Signal;HPM_P1;HPM_P2
2022/09/01 00:00:09;;;;;;;2.30;2.10;;;19.20;56.60;;;;;;5047515;28;20508;-69
2022/09/01 00:02:38;;;;;;;2.20;2.00;;;19.20;56.80;;;;;;5047317;28;20433;-69
2022/09/01 00:05:06;;;;;;;1.98;1.88;;;19.20;56.60;;;;;;5037407;28;20448;-69
2022/09/01 00:07:34;;;;;;;2.70;2.20;;;19.10;56.30;;;;;;5045962;28;20424;-69
2022/09/01 00:10:02;;;;;;;2.50;2.20;;;19.10;57.10;;;;;;5047084;28;20417;-69
2022/09/01 00:12:29;;;;;;;2.35;2.10;;;19.10;56.80;;;;;;5047626;28;20423;-69
2022/09/01 00:14:57;;;;;;;2.13;1.98;;;19.10;57.40;;;;;;5048302;28;20440;-69
2022/09/01 00:17:24;;;;;;;2.47;2.28;;;19.00;57.30;;;;;;5047276;28;20425;-69
2022/09/01 00:19:53;;;;;;;2.60;2.40;;;19.00;57.70;;;;;;5043473;28;20441;-69
2022/09/01 00:22:20;;;;;;;2.53;2.38;;;18.90;58.00;;;;;;5045433;28;20424;-69
2022/09/01 00:24:47;;;;;;;4.38;2.47;;;18.90;57.60;;;;;;5046987;28;20437;-69
2022/09/01 00:27:13;;;;;;;2.47;2.28;;;18.90;57.50;;;;;;5038364;28;20421;-69
2022/09/01 00:29:40;;;;;;;2.50;2.30;;;18.90;58.10;;;;;;5047297;28;20475;-69
2022/09/01 00:32:07;;;;;;;2.45;2.25;;;18.90;57.80;;;;;;5046418;28;20428;-69
2022/09/01 00:34:34;;;;;;;2.30;2.20;;;18.90;57.80;;;;;;5044995;28;20508;-69
2022/09/01 00:37:02;;;;;;;2.28;2.08;;;18.90;57.60;;;;;;5046853;28;20427;-69
2022/09/01 00:39:29;;;;;;;3.30;2.10;;;18.90;57.20;;;;;;5047114;28;20432;-69
2022/09/01 00:41:58;;;;;;;2.60;2.20;;;18.90;56.90;;;;;;5048612;28;20467;-69
2022/09/01 00:44:26;;;;;;;2.80;2.20;;;18.90;57.20;;;;;;5050336;28;21032;-69
2022/09/01 00:46:58;;;;;;;2.40;2.20;;;19.00;56.60;;;;;;5049291;28;21204;-69
2022/09/01 00:49:29;;;;;;;2.60;2.40;;;18.90;56.30;;;;;;5042198;28;20435;-69
2022/09/01 00:52:00;;;;;;;2.67;2.30;;;18.90;56.60;;;;;;5050525;28;20918;-69
2022/09/01 00:54:32;;;;;;;2.70;2.50;;;18.90;56.90;;;;;;5050065;28;20444;-69
2022/09/01 00:57:06;;;;;;;2.50;2.30;;;18.80;56.70;;;;;;5050269;28;20414;-69
2022/09/01 00:59:35;;;;;;;2.80;2.13;;;18.80;57.30;;;;;;5049661;28;20787;-69
2022/09/01 01:02:02;;;;;;;3.90;2.22;;;18.80;57.00;;;;;;5049327;28;20436;-69
2022/09/01 01:04:30;;;;;;;2.47;2.10;;;18.70;58.80;;;;;;5037264;28;20971;-69
2022/09/01 01:07:01;;;;;;;2.80;2.30;;;18.70;58.20;;;;;;5038328;28;20916;-69
2022/09/01 01:09:35;;;;;;;4.40;2.40;;;18.60;58.80;;;;;;5050101;28;20417;-69
2022/09/01 01:12:05;;;;;;;2.20;2.00;;;18.60;59.20;;;;;;5050072;28;20425;-69
2022/09/01 01:14:35;;;;;;;2.20;2.00;;;18.60;58.20;;;;;;5047781;28;20431;-69
2022/09/01 01:17:02;;;;;;;2.60;2.30;;;18.60;58.50;;;;;;5048523;28;20463;-69
2022/09/01 01:25:21;;;;;;;3.85;2.40;;;18.50;58.60;;;;;;5050450;28;20512;-69
2022/09/01 01:27:48;;;;;;;2.50;2.30;;;18.40;59.10;;;;;;5047105;28;20414;-69
2022/09/01 01:30:18;;;;;;;2.67;2.30;;;18.40;58.90;;;;;;5041669;28;20425;-69
2022/09/01 01:32:46;;;;;;;2.13;2.03;;;18.40;58.00;;;;;;5039863;28;20483;-69
2022/09/01 01:35:15;;;;;;;2.40;2.20;;;18.30;58.50;;;;;;5043247;28;20416;-68
2022/09/01 01:37:44;;;;;;;2.50;2.30;;;18.30;58.70;;;;;;5049505;28;20433;-68
2022/09/01 01:40:14;;;;;;;2.53;2.30;;;18.30;59.00;;;;;;5040896;28;20424;-68
2022/09/01 01:42:44;;;;;;;2.65;2.30;;;18.30;59.00;;;;;;5030690;28;20431;-69
2022/09/01 01:45:15;;;;;;;2.30;2.10;;;18.20;58.90;;;;;;5049687;28;20418;-68
2022/09/01 01:47:45;;;;;;;2.25;2.00;;;18.20;59.50;;;;;;5048316;28;20429;-69
2022/09/01 01:50:13;;;;;;;2.40;2.20;;;18.20;59.70;;;;;;5041101;28;20444;-69
2022/09/01 01:52:41;;;;;;;2.53;2.33;;;18.20;60.50;;;;;;5042408;28;20427;-70
2022/09/01 01:55:11;;;;;;;2.50;2.30;;;18.20;60.20;;;;;;5049048;28;20421;-69
2022/09/01 01:57:40;;;;;;;2.30;2.10;;;18.20;59.70;;;;;;5049383;28;20425;-68
2022/09/01 02:00:11;;;;;;;3.25;2.30;;;18.20;59.60;;;;;;5049275;28;20487;-69
2022/09/01 02:02:38;;;;;;;2.25;2.05;;;18.20;60.20;;;;;;5047949;28;20435;-69
2022/09/01 02:05:06;;;;;;;2.30;2.10;;;18.20;60.00;;;;;;5040455;28;20811;-69
2022/09/01 02:07:33;;;;;;;2.50;2.30;;;18.20;59.30;;;;;;5048895;28;20482;-70
2022/09/01 02:10:00;;;;;;;2.78;2.53;;;18.20;60.10;;;;;;5048994;28;20427;-70
2022/09/01 02:12:27;;;;;;;2.63;1.98;;;18.10;59.60;;;;;;5049103;28;20421;-69
2022/09/01 02:14:55;;;;;;;3.38;2.33;;;18.20;60.00;;;;;;5049104;28;20424;-69
2022/09/01 02:17:25;;;;;;;2.90;2.70;;;18.20;60.40;;;;;;5045102;28;20429;-69
2022/09/01 02:19:56;;;;;;;2.88;2.35;;;18.20;60.40;;;;;;5029216;28;20446;-68
2022/09/01 02:22:23;;;;;;;2.40;2.20;;;18.10;59.90;;;;;;5041139;28;20831;-69
2022/09/01 02:24:51;;;;;;;2.92;2.20;;;18.10;60.00;;;;;;5048962;28;20425;-69
2022/09/01 02:27:24;;;;;;;3.60;2.30;;;18.10;60.00;;;;;;5049974;28;20456;-69
2022/09/01 02:29:53;;;;;;;3.72;2.20;;;18.10;60.30;;;;;;5050011;28;20435;-69
2022/09/01 02:32:20;;;;;;;2.50;2.30;;;18.10;59.80;;;;;;5041568;28;20423;-69
2022/09/01 02:34:52;;;;;;;4.25;2.50;;;18.00;60.70;;;;;;5048834;28;20799;-69
2022/09/01 02:37:24;;;;;;;2.35;2.10;;;18.00;60.40;;;;;;5049229;28;20418;-69
2022/09/01 02:39:55;;;;;;;2.50;2.30;;;18.00;60.20;;;;;;5049198;28;20417;-68
2022/09/01 02:42:26;;;;;;;3.80;2.20;;;18.00;60.50;;;;;;5049536;28;20491;-69
2022/09/01 02:44:54;;;;;;;2.35;2.15;;;18.00;60.80;;;;;;5042857;28;20445;-68
2022/09/01 02:47:22;;;;;;;2.50;2.30;;;17.90;60.70;;;;;;5038317;28;20427;-69
2022/09/01 02:49:50;;;;;;;2.42;2.22;;;17.90;60.80;;;;;;5028794;28;20414;-69
2022/09/01 02:52:19;;;;;;;2.50;2.30;;;17.90;60.70;;;;;;5028882;28;20427;-69
2022/09/01 02:54:47;;;;;;;2.28;2.08;;;17.90;60.90;;;;;;5032758;28;20472;-69
2022/09/01 02:57:14;;;;;;;2.47;2.30;;;17.90;60.60;;;;;;5038894;28;20421;-69
2022/09/01 02:59:41;;;;;;;2.20;2.00;;;17.90;60.80;;;;;;5043880;28;20435;-68
2022/09/01 03:02:09;;;;;;;3.22;2.10;;;17.90;61.40;;;;;;5031494;28;20508;-68
2022/09/01 03:04:37;;;;;;;2.40;2.20;;;17.90;61.20;;;;;;5048224;28;20425;-69
2022/09/01 03:07:07;;;;;;;2.10;1.90;;;17.90;61.50;;;;;;5048181;28;20432;-69
2022/09/01 03:09:35;;;;;;;3.05;2.00;;;17.90;61.20;;;;;;5048262;28;20579;-69
2022/09/01 03:12:05;;;;;;;2.67;2.10;;;17.90;60.40;;;;;;5044341;28;20444;-69
2022/09/01 03:14:32;;;;;;;2.00;1.80;;;17.90;60.30;;;;;;5044609;28;20415;-71
2022/09/01 03:17:00;;;;;;;3.80;2.08;;;17.90;60.60;;;;;;5032251;28;20413;-68
2022/09/01 03:19:35;;;;;;;3.33;1.90;;;17.90;60.90;;;;;;5048075;28;20503;-69
2022/09/01 03:22:03;;;;;;;2.20;2.00;;;17.80;61.00;;;;;;5048124;28;20417;-69
2022/09/01 03:24:31;;;;;;;3.37;2.50;;;17.80;61.00;;;;;;5071422;22;20465;-72
2022/09/01 03:26:59;;;;;;;2.50;2.30;;;17.90;61.00;;;;;;5024497;28;20566;-73
2022/09/01 03:29:26;;;;;;;3.30;2.00;;;17.80;60.70;;;;;;5029822;28;20431;-73
2022/09/01 03:31:53;;;;;;;2.73;2.20;;;17.80;61.00;;;;;;5031050;28;20419;-73
2022/09/01 03:34:22;;;;;;;3.10;2.38;;;17.80;61.20;;;;;;5028805;28;20423;-73
2022/09/01 03:36:49;;;;;;;2.72;2.20;;;17.70;60.80;;;;;;5030005;28;20485;-73
2022/09/01 03:39:17;;;;;;;2.40;1.90;;;17.80;60.80;;;;;;5027377;28;20902;-74
2022/09/01 03:41:45;;;;;;;2.47;1.70;;;17.80;60.40;;;;;;5030944;28;20487;-75
2022/09/01 03:44:15;;;;;;;2.20;2.00;;;17.70;60.50;;;;;;5028212;28;20437;-72
2022/09/01 03:46:43;;;;;;;2.10;1.90;;;17.70;60.30;;;;;;5027138;28;20434;-73
2022/09/01 03:49:14;;;;;;;2.40;2.00;;;17.70;61.00;;;;;;5029524;28;20484;-71
2022/09/01 03:51:43;;;;;;;3.53;2.00;;;17.60;62.00;;;;;;5045359;28;20501;-73
2022/09/01 03:54:10;;;;;;;3.83;2.20;;;17.60;61.30;;;;;;5048718;28;20434;-73
2022/09/01 03:56:40;;;;;;;3.15;2.15;;;17.60;61.40;;;;;;5047253;28;20430;-73
2022/09/01 03:59:15;;;;;;;2.10;2.00;;;17.50;61.10;;;;;;5051328;28;20449;-73
2022/09/01 04:01:44;;;;;;;2.63;2.20;;;17.50;61.60;;;;;;5051495;28;20445;-72
2022/09/01 04:04:12;;;;;;;2.67;2.10;;;17.50;61.50;;;;;;5052269;28;20453;-72
2022/09/01 04:06:40;;;;;;;2.13;2.00;;;17.50;62.50;;;;;;5045214;28;20438;-72
2022/09/01 04:09:07;;;;;;;3.58;2.13;;;17.50;62.50;;;;;;5025053;28;20441;-72
2022/09/01 04:11:35;;;;;;;3.20;2.20;;;17.40;62.90;;;;;;5031166;28;20435;-72
2022/09/01 04:14:02;;;;;;;3.13;2.00;;;17.40;62.00;;;;;;5026187;28;20427;-72
2022/09/01 04:19:25;;;;;;;3.10;2.00;;;17.40;62.50;;;;;;5032546;28;20476;-63
2022/09/01 04:21:54;;;;;;;2.90;2.30;;;17.30;62.10;;;;;;5026641;28;20534;-64
2022/09/01 04:24:23;;;;;;;2.97;2.22;;;17.30;62.50;;;;;;5030085;28;20465;-63
2022/09/01 04:26:50;;;;;;;2.80;2.20;;;17.30;62.50;;;;;;5029442;28;20422;-63
2022/09/01 04:29:19;;;;;;;2.47;2.28;;;17.20;62.90;;;;;;5032305;28;20415;-64
2022/09/01 04:31:52;;;;;;;2.30;1.60;;;17.20;62.90;;;;;;5030505;28;20441;-66
2022/09/01 04:34:19;;;;;;;3.38;2.30;;;17.20;62.90;;;;;;5028411;28;20427;-63
2022/09/01 04:36:47;;;;;;;2.40;2.10;;;17.20;63.10;;;;;;5028823;28;22273;-65
2022/09/01 04:39:14;;;;;;;3.70;2.30;;;17.20;62.90;;;;;;5030269;28;20445;-64
2022/09/01 04:41:45;;;;;;;2.38;2.17;;;17.10;63.20;;;;;;5029061;28;20441;-63
2022/09/01 04:44:15;;;;;;;2.20;2.00;;;17.10;63.30;;;;;;5030008;28;20789;-65
2022/09/01 04:46:45;;;;;;;2.92;1.90;;;17.10;63.40;;;;;;5029709;28;20434;-64
2022/09/01 04:49:18;;;;;;;2.88;1.95;;;17.10;63.60;;;;;;5026959;28;20445;-63
2022/09/01 04:51:47;;;;;;;2.50;2.30;;;17.10;63.70;;;;;;5023051;28;20434;-62
2022/09/01 04:54:15;;;;;;;3.70;2.47;;;17.10;63.90;;;;;;5029714;28;20441;-64
2022/09/01 04:56:43;;;;;;;2.83;2.20;;;17.10;64.30;;;;;;5030489;28;20439;-63
2022/09/01 04:59:11;;;;;;;3.33;2.00;;;17.10;63.80;;;;;;5027719;28;20434;-63
2022/09/01 05:01:43;;;;;;;2.40;1.90;;;17.10;64.10;;;;;;5030034;28;21032;-63
2022/09/01 05:04:15;;;;;;;3.75;1.85;;;17.10;63.60;;;;;;5029391;28;20933;-65
2022/09/01 05:06:45;;;;;;;2.10;1.90;;;17.10;63.30;;;;;;5024206;28;20423;-65
2022/09/01 05:09:13;;;;;;;2.37;2.10;;;17.10;63.90;;;;;;5037371;28;20492;-65
2022/09/01 05:11:44;;;;;;;6.30;3.00;;;17.10;64.00;;;;;;5030129;28;20430;-64
2022/09/01 05:14:11;;;;;;;2.55;2.35;;;17.10;63.90;;;;;;5027312;28;20419;-63
2022/09/01 05:16:40;;;;;;;4.63;2.20;;;17.10;64.10;;;;;;5026307;28;20430;-64
2022/09/01 05:19:09;;;;;;;3.40;2.43;;;17.10;63.40;;;;;;5026537;28;20523;-63
2022/09/01 05:21:39;;;;;;;3.70;2.45;;;17.10;63.60;;;;;;5027917;28;20439;-63
2022/09/01 05:24:06;;;;;;;2.60;2.40;;;17.10;63.70;;;;;;5024794;28;20431;-65
2022/09/01 05:26:33;;;;;;;4.17;2.20;;;17.20;63.50;;;;;;5023662;28;20540;-63
2022/09/01 05:29:02;;;;;;;3.50;2.10;;;17.20;63.40;;;;;;5025005;28;20488;-64
2022/09/01 05:31:33;;;;;;;2.50;2.20;;;17.20;63.70;;;;;;5022498;28;20812;-63
2022/09/01 05:34:01;;;;;;;3.30;2.40;;;17.30;63.60;;;;;;5021572;28;20914;-64
2022/09/01 05:36:32;;;;;;;4.20;2.10;;;17.30;62.80;;;;;;5026951;28;20466;-68
2022/09/01 05:39:01;;;;;;;2.22;2.00;;;17.30;62.50;;;;;;5044610;28;20465;-64
2022/09/01 05:41:29;;;;;;;2.55;2.10;;;17.30;63.00;;;;;;5051647;28;20419;-64
2022/09/01 05:43:56;;;;;;;4.35;2.65;;;17.30;62.40;;;;;;5039186;28;20439;-63
2022/09/01 05:46:26;;;;;;;2.83;2.00;;;17.30;62.90;;;;;;5030572;28;20510;-65
2022/09/01 05:48:55;;;;;;;3.53;2.28;;;17.30;62.80;;;;;;5031753;28;20434;-64
2022/09/01 05:51:25;;;;;;;4.30;2.17;;;17.40;62.20;;;;;;5032162;28;20877;-65
2022/09/01 05:53:55;;;;;;;2.00;1.90;;;17.40;62.10;;;;;;5030097;28;20419;-65
2022/09/01 05:56:23;;;;;;;3.28;2.20;;;17.40;61.40;;;;;;5029340;28;20426;-64
2022/09/01 05:58:51;;;;;;;2.25;1.92;;;17.40;61.40;;;;;;5027555;28;20471;-65
2022/09/01 06:01:21;;;;;;;3.40;2.10;;;17.40;61.30;;;;;;5028927;28;20423;-65
2022/09/01 06:03:51;;;;;;;2.33;1.80;;;17.50;61.10;;;;;;5029964;28;20506;-65
2022/09/01 06:06:18;;;;;;;3.78;2.17;;;17.50;61.10;;;;;;5027627;28;20541;-65
2022/09/01 06:08:47;;;;;;;3.53;2.30;;;17.60;61.70;;;;;;5026893;28;20435;-66
2022/09/01 06:11:15;;;;;;;2.03;1.83;;;17.60;61.60;;;;;;5041298;28;20492;-65
2022/09/01 06:13:46;;;;;;;4.50;1.98;;;17.70;60.30;;;;;;5028052;28;20510;-64
2022/09/01 06:16:14;;;;;;;4.10;1.80;;;17.80;60.30;;;;;;5034094;28;20418;-65
2022/09/01 06:18:42;;;;;;;3.60;2.50;;;17.90;59.80;;;;;;5034725;28;20427;-64
2022/09/01 06:21:10;;;;;;;6.20;4.70;;;18.00;59.20;;;;;;5029128;28;20477;-66
2022/09/01 06:23:37;;;;;;;2.80;1.77;;;18.10;58.90;;;;;;5029880;28;20514;-65
2022/09/01 06:26:05;;;;;;;3.63;2.10;;;18.10;57.90;;;;;;5028787;28;20464;-64
2022/09/01 06:28:31;;;;;;;2.20;1.70;;;18.20;57.70;;;;;;5030533;28;20438;-64
2022/09/01 06:30:59;;;;;;;1.85;1.63;;;18.20;56.90;;;;;;5029194;28;20423;-64
2022/09/01 06:33:26;;;;;;;1.63;1.52;;;18.30;56.90;;;;;;5030762;28;20812;-65
2022/09/01 06:35:54;;;;;;;2.47;1.42;;;18.30;56.60;;;;;;5030604;28;20502;-64
2022/09/01 06:38:21;;;;;;;2.72;1.60;;;18.40;56.70;;;;;;5020893;28;20443;-64
2022/09/01 06:40:48;;;;;;;3.00;1.33;;;18.40;56.30;;;;;;5026648;28;20860;-65
2022/09/01 06:43:16;;;;;;;3.20;1.45;;;18.50;56.00;;;;;;5026526;28;20449;-64
2022/09/01 06:45:48;;;;;;;3.05;1.70;;;18.60;55.70;;;;;;5028196;28;20498;-65
2022/09/01 06:48:16;;;;;;;2.53;1.70;;;18.60;55.20;;;;;;5027126;28;20996;-65
2022/09/01 06:50:44;;;;;;;2.53;1.77;;;18.70;55.60;;;;;;5034749;28;20449;-65
2022/09/01 06:53:15;;;;;;;2.53;1.60;;;18.80;55.60;;;;;;5030949;28;20868;-65
2022/09/01 06:55:42;;;;;;;3.15;1.40;;;18.90;55.30;;;;;;5050119;28;20496;-65
2022/09/01 06:58:14;;;;;;;2.00;1.10;;;19.00;55.10;;;;;;5030186;28;20430;-65
2022/09/01 07:00:42;;;;;;;2.73;1.40;;;19.10;54.10;;;;;;5034221;28;20433;-65
2022/09/01 07:03:10;;;;;;;2.42;1.60;;;19.20;53.50;;;;;;5036706;28;20419;-68
2022/09/01 07:05:40;;;;;;;2.10;1.40;;;19.20;53.40;;;;;;5034175;28;20432;-66
2022/09/01 07:08:09;;;;;;;1.63;1.30;;;19.40;53.50;;;;;;5027878;28;20431;-66
2022/09/01 07:10:44;;;;;;;2.85;1.30;;;19.50;53.00;;;;;;5024924;28;20943;-65
2022/09/01 07:13:21;;;;;;;2.13;1.42;;;19.60;52.80;;;;;;5033348;28;20445;-65
2022/09/01 07:15:49;;;;;;;1.60;1.40;;;19.70;52.10;;;;;;5032299;28;20708;-67
2022/09/01 07:18:17;;;;;;;2.70;1.40;;;19.80;51.60;;;;;;5038044;28;20421;-64
2022/09/01 07:20:47;;;;;;;2.47;1.48;;;19.90;51.50;;;;;;5033796;28;20423;-64
2022/09/01 07:23:15;;;;;;;2.60;1.73;;;19.90;52.00;;;;;;5031139;28;20487;-65
2022/09/01 07:25:44;;;;;;;3.45;1.55;;;20.10;52.20;;;;;;5031983;28;20856;-65
2022/09/01 07:28:13;;;;;;;3.00;1.70;;;20.20;51.90;;;;;;5029242;28;20525;-65
2022/09/01 07:30:42;;;;;;;2.90;1.42;;;20.40;50.40;;;;;;5028404;28;20423;-65
2022/09/01 07:33:10;;;;;;;1.35;1.20;;;20.50;50.30;;;;;;5026904;28;20427;-66
2022/09/01 07:35:38;;;;;;;2.85;1.50;;;20.60;50.00;;;;;;5032189;28;20429;-65
2022/09/01 07:38:08;;;;;;;2.80;1.42;;;20.70;49.90;;;;;;5029585;28;20439;-64
2022/09/01 07:40:37;;;;;;;4.50;1.60;;;20.80;49.50;;;;;;5029526;28;20890;-67
2022/09/01 07:43:07;;;;;;;2.72;1.70;;;21.10;49.50;;;;;;5044415;28;20504;-65
2022/09/01 07:45:36;;;;;;;2.97;1.30;;;21.30;48.70;;;;;;5046312;28;20433;-66
2022/09/01 07:48:06;;;;;;;2.30;1.50;;;21.40;47.50;;;;;;5051752;28;20442;-67
2022/09/01 07:50:34;;;;;;;2.45;1.40;;;21.50;47.80;;;;;;5041659;28;20423;-67
2022/09/01 07:53:01;;;;;;;2.90;1.23;;;21.50;47.20;;;;;;5033496;28;20419;-67
2022/09/01 07:55:30;;;;;;;4.10;1.60;;;21.60;47.10;;;;;;5038336;28;20430;-64
2022/09/01 07:57:58;;;;;;;1.95;1.50;;;21.70;47.40;;;;;;5033822;28;20997;-66
2022/09/01 08:00:27;;;;;;;2.50;1.60;;;21.80;47.40;;;;;;5030548;28;20434;-67
2022/09/01 08:02:54;;;;;;;3.80;1.70;;;22.00;46.60;;;;;;5039650;28;20891;-65
2022/09/01 08:05:25;;;;;;;2.10;1.60;;;22.20;46.30;;;;;;5034998;28;20917;-67
2022/09/01 08:07:51;;;;;;;2.88;1.58;;;22.30;45.50;;;;;;5033516;28;20435;-64
2022/09/01 08:10:18;;;;;;;6.37;1.87;;;22.30;45.90;;;;;;5033912;28;20434;-65
2022/09/01 08:12:47;;;;;;;4.15;1.75;;;22.40;46.10;;;;;;5033840;28;20815;-65
2022/09/01 08:15:15;;;;;;;1.60;1.50;;;22.60;45.30;;;;;;5033674;28;21018;-65
2022/09/01 08:17:43;;;;;;;2.00;1.30;;;22.90;45.00;;;;;;5031009;28;20430;-65
2022/09/01 08:20:10;;;;;;;3.05;1.33;;;23.00;44.60;;;;;;5031774;28;20418;-67
2022/09/01 08:22:38;;;;;;;2.05;1.50;;;23.20;44.20;;;;;;5031058;28;20427;-66
2022/09/01 08:25:06;;;;;;;2.15;1.20;;;23.50;43.90;;;;;;5032866;28;20628;-67
2022/09/01 08:27:35;;;;;;;3.15;1.40;;;23.60;42.90;;;;;;5028684;28;20435;-66
2022/09/01 08:30:04;;;;;;;2.50;1.40;;;23.80;42.50;;;;;;5035434;28;20425;-65
2022/09/01 08:32:31;;;;;;;2.20;1.30;;;23.90;42.00;;;;;;5044459;28;20948;-65
2022/09/01 08:34:58;;;;;;;3.50;1.48;;;23.90;42.10;;;;;;5033199;28;20904;-65
2022/09/01 08:37:25;;;;;;;1.70;1.30;;;24.00;41.70;;;;;;5022555;28;20436;-66
2022/09/01 08:39:52;;;;;;;2.55;1.52;;;24.00;41.50;;;;;;5037884;28;20849;-67
2022/09/01 08:42:31;;;;;;;1.63;1.50;;;24.10;41.10;;;;;;5039842;28;20447;-66
2022/09/01 08:45:03;;;;;;;1.50;1.40;;;24.10;41.00;;;;;;5021377;28;20434;-64
2022/09/01 08:47:31;;;;;;;3.20;1.30;;;24.20;41.00;;;;;;5037457;28;20414;-66
2022/09/01 08:49:59;;;;;;;1.50;1.30;;;24.30;40.10;;;;;;5035034;28;20421;-66
2022/09/01 08:52:30;;;;;;;3.77;1.40;;;24.40;40.40;;;;;;5037851;28;20455;-65
2022/09/01 08:55:02;;;;;;;1.90;1.35;;;24.60;40.20;;;;;;5036520;28;20417;-64
2022/09/01 08:57:33;;;;;;;2.45;1.60;;;24.80;40.00;;;;;;5033600;28;20426;-65
2022/09/01 09:00:00;;;;;;;2.50;1.20;;;25.00;39.70;;;;;;5030469;28;20929;-65
2022/09/01 09:02:45;;;;;;;1.83;1.30;;;25.10;38.10;;;;;;5031882;28;20434;-66
2022/09/01 09:05:29;;;;;;;1.20;1.10;;;25.30;38.00;;;;;;5029712;28;20419;-66
2022/09/01 09:08:26;;;;;;;2.20;1.20;;;25.40;38.50;;;;;;5048604;28;20417;-69
2022/09/01 09:10:58;;;;;;;2.72;1.10;;;25.60;37.70;;;;;;5045882;28;20425;-65
2022/09/01 09:13:39;;;;;;;1.55;1.10;;;25.50;37.30;;;;;;5037184;28;20442;-65
2022/09/01 09:16:10;;;;;;;1.80;1.10;;;25.70;36.70;;;;;;5031602;28;20522;-65
2022/09/01 09:18:44;;;;;;;2.10;1.20;;;25.90;36.60;;;;;;5030476;28;20419;-64
2022/09/01 09:21:16;;;;;;;2.63;1.27;;;26.10;35.60;;;;;;5024920;28;20421;-65
2022/09/01 09:23:47;;;;;;;7.60;2.10;;;26.10;35.90;;;;;;5047005;28;20433;-65
2022/09/01 09:28:43;;;;;;;1.20;1.10;;;26.30;36.10;;;;;;5062329;22;20802;-63
2022/09/01 09:31:30;;;;;;;1.70;1.00;;;26.40;36.50;;;;;;5048204;28;20743;-64
2022/09/01 09:33:58;;;;;;;1.23;1.10;;;26.50;36.80;;;;;;5040702;28;20495;-64
2022/09/01 09:36:32;;;;;;;1.90;0.90;;;26.70;36.50;;;;;;5041887;28;20520;-64
2022/09/01 09:39:19;;;;;;;1.50;0.80;;;26.80;35.60;;;;;;5047323;28;21048;-63
2022/09/01 09:42:07;;;;;;;2.40;1.00;;;26.80;34.50;;;;;;5038813;28;20456;-65
2022/09/01 09:44:42;;;;;;;1.63;1.05;;;26.80;35.50;;;;;;5043675;28;20867;-64
2022/09/01 09:47:09;;;;;;;0.90;0.70;;;27.00;32.90;;;;;;5029959;28;20586;-64
2022/09/01 09:49:38;;;;;;;1.90;0.90;;;27.10;33.10;;;;;;5043061;28;20421;-64
2022/09/01 09:52:16;;;;;;;2.03;1.00;;;27.00;33.60;;;;;;5043678;28;20420;-64
2022/09/01 09:55:00;;;;;;;1.50;1.05;;;27.00;33.90;;;;;;5043179;28;20478;-64
2022/09/01 09:57:28;;;;;;;1.20;1.10;;;27.20;32.60;;;;;;5037730;28;20469;-65
2022/09/01 10:00:01;;;;;;;1.50;1.00;;;27.40;31.40;;;;;;5044357;28;20420;-63
2022/09/01 10:02:32;;;;;;;1.08;0.80;;;27.10;31.90;;;;;;5043312;28;20432;-65
2022/09/01 10:05:01;;;;;;;1.70;1.10;;;26.70;30.90;;;;;;5040105;28;20425;-64
2022/09/01 10:07:32;;;;;;;0.90;0.80;;;26.40;31.80;;;;;;5043850;28;20429;-64
2022/09/01 10:10:02;;;;;;;2.10;0.90;;;25.90;30.70;;;;;;5042171;28;20447;-64
2022/09/01 10:12:31;;;;;;;1.63;1.00;;;25.80;31.30;;;;;;5039772;28;20522;-65
2022/09/01 10:15:02;;;;;;;1.15;0.90;;;26.10;32.80;;;;;;5042341;28;20460;-64
2022/09/01 10:17:33;;;;;;;2.22;1.00;;;26.50;33.30;;;;;;5044085;28;20568;-65
2022/09/01 10:20:05;;;;;;;0.90;0.70;;;26.80;33.20;;;;;;5040274;28;20886;-65
2022/09/01 10:22:33;;;;;;;1.80;0.98;;;27.20;32.80;;;;;;5038090;28;20972;-64
2022/09/01 10:25:00;;;;;;;0.85;0.80;;;27.60;31.50;;;;;;5042471;28;20536;-64
2022/09/01 10:27:31;;;;;;;1.80;1.00;;;27.90;30.60;;;;;;5038652;28;20433;-65
2022/09/01 10:30:05;;;;;;;1.85;1.00;;;28.20;30.70;;;;;;5040484;28;20435;-64
2022/09/01 10:32:36;;;;;;;1.30;0.80;;;28.40;30.50;;;;;;5044863;28;20425;-64
2022/09/01 10:35:07;;;;;;;1.70;1.10;;;28.40;31.10;;;;;;5045958;28;20425;-64
2022/09/01 10:37:34;;;;;;;1.85;1.00;;;28.50;30.40;;;;;;5043299;28;20891;-64
2022/09/01 10:40:39;;;;;;;1.40;0.90;;;28.60;29.80;;;;;;5043184;28;20443;-67
2022/09/01 10:43:35;;;;;;;1.60;0.90;;;28.60;29.10;;;;;;5042500;28;20436;-64
2022/09/01 10:46:26;;;;;;;1.27;1.13;;;28.50;29.10;;;;;;5004814;28;20425;-65
2022/09/01 10:48:55;;;;;;;2.10;0.80;;;28.60;30.00;;;;;;5032979;28;20578;-64
2022/09/01 10:51:44;;;;;;;0.80;0.73;;;28.70;29.40;;;;;;5045077;28;20508;-64
2022/09/01 10:54:53;;;;;;;1.67;1.17;;;28.80;30.00;;;;;;5045595;28;20417;-65
2022/09/01 10:57:35;;;;;;;1.60;0.80;;;29.20;30.00;;;;;;5043625;28;20508;-65
2022/09/01 11:00:46;;;;;;;2.00;0.98;;;29.40;29.00;;;;;;5043163;28;20447;-66
2022/09/01 11:03:33;;;;;;;1.30;0.90;;;29.50;27.40;;;;;;5042631;28;20490;-65
2022/09/01 11:06:00;;;;;;;0.90;0.90;;;29.50;28.10;;;;;;5043903;28;20433;-63
2022/09/01 11:08:45;;;;;;;1.10;1.00;;;29.60;29.20;;;;;;5043502;28;20437;-65
2022/09/01 11:11:23;;;;;;;0.93;0.90;;;29.50;28.30;;;;;;5032205;28;20445;-72
2022/09/01 11:13:52;;;;;;;0.93;0.90;;;29.20;28.50;;;;;;5043825;28;20927;-72
2022/09/01 11:16:31;;;;;;;1.80;1.10;;;28.50;28.90;;;;;;5043850;28;20425;-72
2022/09/01 11:19:24;;;;;;;1.50;1.20;;;28.30;29.10;;;;;;5044047;28;20860;-72
2022/09/01 11:22:09;;;;;;;1.70;1.25;;;28.60;28.80;;;;;;5043570;28;20433;-72
2022/09/01 11:24:52;;;;;;;1.20;1.10;;;29.00;29.50;;;;;;5044275;28;20425;-71
2022/09/01 11:27:56;;;;;;;1.35;1.00;;;28.90;29.10;;;;;;5046852;28;21396;-72
2022/09/01 11:30:24;;;;;;;3.08;1.23;;;28.60;29.30;;;;;;5041993;28;20443;-71
2022/09/01 11:33:02;;;;;;;1.80;1.20;;;28.30;29.00;;;;;;5043274;28;20950;-72
2022/09/01 11:35:29;;;;;;;2.20;1.33;;;28.00;29.60;;;;;;5037767;28;20447;-72
2022/09/01 11:38:03;;;;;;;1.88;1.35;;;27.80;29.70;;;;;;5043414;28;20516;-72
2022/09/01 11:40:34;;;;;;;1.52;1.42;;;27.60;30.30;;;;;;5039011;28;20516;-72
2022/09/01 11:43:06;;;;;;;1.50;1.20;;;27.40;30.60;;;;;;5039535;28;20432;-72
2022/09/01 11:45:36;;;;;;;1.50;1.10;;;27.20;31.10;;;;;;5042735;28;20796;-72
2022/09/01 11:48:09;;;;;;;3.07;1.50;;;27.00;32.70;;;;;;5040787;28;20521;-72
2022/09/01 11:50:38;;;;;;;1.70;1.30;;;27.20;31.80;;;;;;5039381;28;20437;-72
2022/09/01 11:53:07;;;;;;;1.40;1.30;;;27.20;31.60;;;;;;5044505;28;20995;-72
2022/09/01 11:55:38;;;;;;;1.40;1.30;;;27.10;31.30;;;;;;5041538;28;20443;-72
2022/09/01 11:58:06;;;;;;;2.20;1.30;;;26.90;31.20;;;;;;5044049;28;20434;-72
2022/09/01 12:00:37;;;;;;;1.50;1.20;;;26.80;32.10;;;;;;5043883;28;20563;-72
2022/09/01 12:03:05;;;;;;;1.20;1.10;;;27.00;31.50;;;;;;5036555;28;20442;-72
2022/09/01 12:05:34;;;;;;;2.22;1.20;;;27.10;31.50;;;;;;5041200;28;20954;-72
2022/09/01 12:08:03;;;;;;;1.50;1.40;;;27.30;31.40;;;;;;5041665;28;20433;-72
2022/09/01 12:10:33;;;;;;;1.60;1.50;;;27.30;31.40;;;;;;5041181;28;20531;-72
2022/09/01 12:13:04;;;;;;;2.60;1.50;;;27.30;31.50;;;;;;5044562;28;20762;-72
2022/09/01 12:15:33;;;;;;;1.50;1.40;;;27.60;31.90;;;;;;5040579;28;20776;-73
2022/09/01 12:18:14;;;;;;;1.60;1.40;;;28.20;30.60;;;;;;5039692;28;20433;-72
2022/09/01 12:20:41;;;;;;;1.60;1.50;;;28.70;29.60;;;;;;5041980;28;20508;-72
2022/09/01 12:23:18;;;;;;;1.85;1.65;;;28.70;29.00;;;;;;5043353;28;20461;-72
2022/09/01 12:25:46;;;;;;;1.80;1.50;;;28.30;29.40;;;;;;5037341;28;20516;-72
2022/09/01 12:28:14;;;;;;;1.75;1.33;;;28.30;30.10;;;;;;5036460;28;20433;-72
2022/09/01 12:30:43;;;;;;;1.50;1.40;;;28.70;29.00;;;;;;5042561;28;20433;-72
2022/09/01 12:33:12;;;;;;;2.10;1.42;;;29.10;29.20;;;;;;5042061;28;20428;-72
2022/09/01 12:35:39;;;;;;;2.53;1.40;;;29.60;28.30;;;;;;5042443;28;20845;-72
2022/09/01 12:38:23;;;;;;;1.85;1.50;;;29.80;28.10;;;;;;5044588;28;20413;-72
2022/09/01 12:40:51;;;;;;;1.50;1.40;;;30.00;28.10;;;;;;5041722;28;20530;-72
2022/09/01 12:43:31;;;;;;;1.55;1.45;;;29.80;28.80;;;;;;5047077;28;20528;-71
2022/09/01 12:46:00;;;;;;;1.50;1.40;;;30.10;28.10;;;;;;5046765;28;20946;-71
2022/09/01 12:48:29;;;;;;;1.55;1.45;;;30.50;28.30;;;;;;5046544;28;20941;-71
2022/09/01 12:50:57;;;;;;;1.70;1.42;;;30.60;27.50;;;;;;5046807;28;20448;-71
2022/09/01 12:53:28;;;;;;;1.40;1.30;;;30.20;28.00;;;;;;5056820;28;20424;-70
2022/09/01 12:56:16;;;;;;;1.65;1.50;;;29.70;28.60;;;;;;5037229;28;20510;-71
2022/09/01 12:58:52;;;;;;;1.65;1.55;;;29.20;28.60;;;;;;5043348;28;20483;-72
2022/09/01 13:01:32;;;;;;;1.70;1.60;;;28.70;29.40;;;;;;5046632;28;20491;-73
2022/09/01 13:04:25;;;;;;;1.98;1.60;;;28.20;30.20;;;;;;5046860;28;20599;-72
2022/09/01 13:06:52;;;;;;;2.03;1.90;;;27.80;31.10;;;;;;5044500;28;20942;-70
2022/09/01 13:09:19;;;;;;;3.10;1.80;;;27.60;31.90;;;;;;5043942;28;20435;-71
2022/09/01 13:11:46;;;;;;;1.95;1.75;;;27.50;32.90;;;;;;5049544;28;20421;-72
2022/09/01 13:14:16;;;;;;;1.70;1.60;;;27.40;32.20;;;;;;5046611;28;21126;-70
2022/09/01 13:16:43;;;;;;;2.63;1.55;;;27.70;31.60;;;;;;5045161;28;20424;-72